sensor_id;sensor_type;location;lat;lon;timestamp;temperature;humidity
54796;DHT22;40693;43.884;20.340;2024-03-06T00:00:20;332.80;2329.60
54796;DHT22;40693;43.884;20.340;2024-03-06T00:02:49;308.10;2304.00
54796;DHT22;40693;43.884;20.340;2024-03-06T00:05:15;308.00;2304.00
54796;DHT22;40693;43.884;20.340;2024-03-06T00:07:49;308.00;2304.00
54796;DHT22;40693;43.884;20.340;2024-03-06T00:10:17;308.10;2304.00
54796;DHT22;40693;43.884;20.340;2024-03-06T00:12:42;308.10;2304.00
54796;DHT22;40693;43.884;20.340;2024-03-06T00:15:08;332.90;2329.60
54796;DHT22;40693;43.884;20.340;2024-03-06T00:17:34;332.90;2329.60
54796;DHT22;40693;43.884;20.340;2024-03-06T00:20:00;332.90;2329.60
54796;DHT22;40693;43.884;20.340;2024-03-06T00:22:26;332.80;2329.60
54796;DHT22;40693;43.884;20.340;2024-03-06T00:24:52;332.80;2329.60
54796;DHT22;40693;43.884;20.340;2024-03-06T00:27:17;332.90;2329.60
54796;DHT22;40693;43.884;20.340;2024-03-06T00:29:43;332.90;2329.60
54796;DHT22;40693;43.884;20.340;2024-03-06T00:32:09;333.00;2329.60
54796;DHT22;40693;43.884;20.340;2024-03-06T00:34:35;333.10;2329.60
54796;DHT22;40693;43.884;20.340;2024-03-06T00:37:00;333.10;2329.60
54796;DHT22;40693;43.884;20.340;2024-03-06T00:39:26;333.10;2329.60
54796;DHT22;40693;43.884;20.340;2024-03-06T00:41:52;333.20;2329.60
54796;DHT22;40693;43.884;20.340;2024-03-06T00:44:18;333.20;2329.60
54796;DHT22;40693;43.884;20.340;2024-03-06T00:46:44;333.20;2329.60
54796;DHT22;40693;43.884;20.340;2024-03-06T00:49:10;333.30;2329.60
54796;DHT22;40693;43.884;20.340;2024-03-06T00:51:35;333.40;2329.60
54796;DHT22;40693;43.884;20.340;2024-03-06T00:54:03;333.50;2329.60
54796;DHT22;40693;43.884;20.340;2024-03-06T00:56:29;333.40;2329.60
54796;DHT22;40693;43.884;20.340;2024-03-06T00:58:56;333.40;2329.60
54796;DHT22;40693;43.884;20.340;2024-03-06T01:01:22;333.40;2329.60
54796;DHT22;40693;43.884;20.340;2024-03-06T01:03:47;333.40;2329.60
54796;DHT22;40693;43.884;20.340;2024-03-06T01:06:13;333.40;2329.60
54796;DHT22;40693;43.884;20.340;2024-03-06T01:08:39;333.30;2329.60
54796;DHT22;40693;43.884;20.340;2024-03-06T01:11:05;333.20;2329.60
54796;DHT22;40693;43.884;20.340;2024-03-06T01:13:31;333.20;2329.60
54796;DHT22;40693;43.884;20.340;2024-03-06T01:15:57;333.20;2329.60
54796;DHT22;40693;43.884;20.340;2024-03-06T01:18:22;333.20;2329.60
54796;DHT22;40693;43.884;20.340;2024-03-06T01:20:48;333.20;2329.60
54796;DHT22;40693;43.884;20.340;2024-03-06T01:23:14;333.20;2329.60
54796;DHT22;40693;43.884;20.340;2024-03-06T01:25:39;333.20;2329.60
54796;DHT22;40693;43.884;20.340;2024-03-06T01:28:05;333.20;2329.60
54796;DHT22;40693;43.884;20.340;2024-03-06T01:30:31;333.20;2329.60
54796;DHT22;40693;43.884;20.340;2024-03-06T01:32:57;333.20;2329.60
54796;DHT22;40693;43.884;20.340;2024-03-06T01:35:23;333.20;2329.60
54796;DHT22;40693;43.884;20.340;2024-03-06T01:37:49;333.30;2329.60
54796;DHT22;40693;43.884;20.340;2024-03-06T01:40:15;333.30;2329.60
54796;DHT22;40693;43.884;20.340;2024-03-06T01:42:41;333.30;2329.60
54796;DHT22;40693;43.884;20.340;2024-03-06T01:45:07;333.30;2329.60
54796;DHT22;40693;43.884;20.340;2024-03-06T01:47:33;333.40;2329.60
54796;DHT22;40693;43.884;20.340;2024-03-06T01:49:59;333.40;2329.60
54796;DHT22;40693;43.884;20.340;2024-03-06T01:52:26;333.30;2329.60
54796;DHT22;40693;43.884;20.340;2024-03-06T01:54:53;333.30;2329.60
54796;DHT22;40693;43.884;20.340;2024-03-06T01:57:19;333.20;2329.60
54796;DHT22;40693;43.884;20.340;2024-03-06T01:59:45;333.20;2329.60
54796;DHT22;40693;43.884;20.340;2024-03-06T02:02:11;333.10;2329.60
54796;DHT22;40693;43.884;20.340;2024-03-06T02:07:03;332.90;2329.60
54796;DHT22;40693;43.884;20.340;2024-03-06T02:09:29;332.80;2329.60
54796;DHT22;40693;43.884;20.340;2024-03-06T02:11:55;332.80;2329.60
54796;DHT22;40693;43.884;20.340;2024-03-06T02:14:20;332.80;2329.60
54796;DHT22;40693;43.884;20.340;2024-03-06T02:16:46;332.80;2329.60
54796;DHT22;40693;43.884;20.340;2024-03-06T02:19:12;308.10;2304.00
54796;DHT22;40693;43.884;20.340;2024-03-06T02:21:38;332.80;2329.60
54796;DHT22;40693;43.884;20.340;2024-03-06T02:24:03;332.80;2329.60
54796;DHT22;40693;43.884;20.340;2024-03-06T02:26:29;332.90;2329.60
54796;DHT22;40693;43.884;20.340;2024-03-06T02:28:56;332.90;2329.60
54796;DHT22;40693;43.884;20.340;2024-03-06T02:31:22;332.90;2329.60
54796;DHT22;40693;43.884;20.340;2024-03-06T02:33:49;332.90;2329.60
54796;DHT22;40693;43.884;20.340;2024-03-06T02:36:16;332.90;2329.60
54796;DHT22;40693;43.884;20.340;2024-03-06T02:38:43;332.90;2329.60
54796;DHT22;40693;43.884;20.340;2024-03-06T02:41:11;332.90;2329.60
54796;DHT22;40693;43.884;20.340;2024-03-06T02:43:39;332.90;2329.60
54796;DHT22;40693;43.884;20.340;2024-03-06T02:46:05;332.90;2329.60
54796;DHT22;40693;43.884;20.340;2024-03-06T02:48:31;332.90;2329.60
54796;DHT22;40693;43.884;20.340;2024-03-06T02:50:58;332.90;2329.60
54796;DHT22;40693;43.884;20.340;2024-03-06T02:53:24;332.80;2329.60
54796;DHT22;40693;43.884;20.340;2024-03-06T02:55:52;332.80;2329.60
54796;DHT22;40693;43.884;20.340;2024-03-06T02:58:17;332.80;2329.60
54796;DHT22;40693;43.884;20.340;2024-03-06T03:00:43;332.80;2329.60
54796;DHT22;40693;43.884;20.340;2024-03-06T03:03:10;308.10;2304.00
54796;DHT22;40693;43.884;20.340;2024-03-06T03:05:40;308.10;2304.00
54796;DHT22;40693;43.884;20.340;2024-03-06T03:08:06;308.00;2304.00
54796;DHT22;40693;43.884;20.340;2024-03-06T03:10:32;308.00;2304.00
54796;DHT22;40693;43.884;20.340;2024-03-06T03:13:00;308.00;2304.00
54796;DHT22;40693;43.884;20.340;2024-03-06T03:15:25;307.90;2304.00
54796;DHT22;40693;43.884;20.340;2024-03-06T03:17:51;307.90;2304.00
54796;DHT22;40693;43.884;20.340;2024-03-06T03:20:17;308.00;2304.00
54796;DHT22;40693;43.884;20.340;2024-03-06T03:22:43;308.00;2304.00
54796;DHT22;40693;43.884;20.340;2024-03-06T03:25:10;308.00;2304.00
54796;DHT22;40693;43.884;20.340;2024-03-06T03:27:40;308.00;2304.00
54796;DHT22;40693;43.884;20.340;2024-03-06T03:30:10;307.90;2304.00
54796;DHT22;40693;43.884;20.340;2024-03-06T03:32:36;307.90;2304.00
54796;DHT22;40693;43.884;20.340;2024-03-06T03:35:04;307.80;2304.00
54796;DHT22;40693;43.884;20.340;2024-03-06T03:37:31;307.70;2304.00
54796;DHT22;40693;43.884;20.340;2024-03-06T03:39:56;307.70;2304.00
54796;DHT22;40693;43.884;20.340;2024-03-06T03:42:22;307.70;2304.00
54796;DHT22;40693;43.884;20.340;2024-03-06T03:44:48;307.70;2304.00
54796;DHT22;40693;43.884;20.340;2024-03-06T03:47:14;307.70;2304.00
54796;DHT22;40693;43.884;20.340;2024-03-06T03:49:40;307.70;2304.00
54796;DHT22;40693;43.884;20.340;2024-03-06T03:52:05;307.70;2304.00
54796;DHT22;40693;43.884;20.340;2024-03-06T03:54:32;307.70;2304.00
54796;DHT22;40693;43.884;20.340;2024-03-06T03:56:58;307.80;2304.00
54796;DHT22;40693;43.884;20.340;2024-03-06T03:59:25;307.80;2304.00
54796;DHT22;40693;43.884;20.340;2024-03-06T04:01:51;307.90;2304.00
54796;DHT22;40693;43.884;20.340;2024-03-06T04:04:17;307.90;2304.00
54796;DHT22;40693;43.884;20.340;2024-03-06T04:06:43;307.90;2304.00
54796;DHT22;40693;43.884;20.340;2024-03-06T04:09:08;307.90;2304.00
54796;DHT22;40693;43.884;20.340;2024-03-06T04:11:37;307.90;2304.00
54796;DHT22;40693;43.884;20.340;2024-03-06T04:14:04;307.90;2304.00
54796;DHT22;40693;43.884;20.340;2024-03-06T04:16:30;307.90;2304.00
54796;DHT22;40693;43.884;20.340;2024-03-06T04:18:56;307.90;2304.00
54796;DHT22;40693;43.884;20.340;2024-03-06T04:21:21;307.90;2304.00
54796;DHT22;40693;43.884;20.340;2024-03-06T04:23:48;307.90;2304.00
54796;DHT22;40693;43.884;20.340;2024-03-06T04:26:14;307.90;2304.00
54796;DHT22;40693;43.884;20.340;2024-03-06T04:28:40;307.80;2304.00
54796;DHT22;40693;43.884;20.340;2024-03-06T04:31:06;307.70;2304.00
54796;DHT22;40693;43.884;20.340;2024-03-06T04:33:31;307.70;2304.00
54796;DHT22;40693;43.884;20.340;2024-03-06T04:35:57;307.70;2304.00
54796;DHT22;40693;43.884;20.340;2024-03-06T04:38:23;307.70;2304.00
54796;DHT22;40693;43.884;20.340;2024-03-06T04:40:49;307.60;2304.00
54796;DHT22;40693;43.884;20.340;2024-03-06T04:43:15;307.60;2304.00
54796;DHT22;40693;43.884;20.340;2024-03-06T04:45:41;307.70;2304.00
54796;DHT22;40693;43.884;20.340;2024-03-06T04:48:07;307.60;2304.00
54796;DHT22;40693;43.884;20.340;2024-03-06T04:50:33;307.60;2304.00
54796;DHT22;40693;43.884;20.340;2024-03-06T04:52:59;307.60;2304.00
54796;DHT22;40693;43.884;20.340;2024-03-06T04:55:25;307.60;2304.00
54796;DHT22;40693;43.884;20.340;2024-03-06T04:57:52;307.60;2304.00
54796;DHT22;40693;43.884;20.340;2024-03-06T05:00:18;307.50;2304.00
54796;DHT22;40693;43.884;20.340;2024-03-06T05:02:44;307.50;2304.00
54796;DHT22;40693;43.884;20.340;2024-03-06T05:05:11;307.40;2304.00
54796;DHT22;40693;43.884;20.340;2024-03-06T05:07:37;307.40;2304.00
54796;DHT22;40693;43.884;20.340;2024-03-06T05:10:03;307.40;2304.00
54796;DHT22;40693;43.884;20.340;2024-03-06T05:12:28;307.40;2304.00
54796;DHT22;40693;43.884;20.340;2024-03-06T05:14:55;307.30;2304.00
54796;DHT22;40693;43.884;20.340;2024-03-06T05:17:21;307.30;2304.00
54796;DHT22;40693;43.884;20.340;2024-03-06T05:19:47;307.20;2304.00
54796;DHT22;40693;43.884;20.340;2024-03-06T05:22:15;307.30;2304.00
54796;DHT22;40693;43.884;20.340;2024-03-06T05:24:42;307.30;2304.00
54796;DHT22;40693;43.884;20.340;2024-03-06T05:27:08;307.30;2304.00
54796;DHT22;40693;43.884;20.340;2024-03-06T05:29:35;307.60;2304.00
54796;DHT22;40693;43.884;20.340;2024-03-06T05:32:02;307.40;2304.00
54796;DHT22;40693;43.884;20.340;2024-03-06T05:34:29;307.40;2304.00
54796;DHT22;40693;43.884;20.340;2024-03-06T05:36:55;307.40;2304.00
54796;DHT22;40693;43.884;20.340;2024-03-06T05:39:21;307.50;2304.00
54796;DHT22;40693;43.884;20.340;2024-03-06T05:41:46;307.50;2304.00
54796;DHT22;40693;43.884;20.340;2024-03-06T05:44:12;307.50;2304.00
54796;DHT22;40693;43.884;20.340;2024-03-06T05:46:38;307.50;2304.00
54796;DHT22;40693;43.884;20.340;2024-03-06T05:49:04;307.50;2304.00
54796;DHT22;40693;43.884;20.340;2024-03-06T05:51:30;307.50;2304.00
54796;DHT22;40693;43.884;20.340;2024-03-06T05:53:56;307.60;2304.00
54796;DHT22;40693;43.884;20.340;2024-03-06T05:56:22;307.60;2304.00
54796;DHT22;40693;43.884;20.340;2024-03-06T05:58:48;307.60;2304.00
54796;DHT22;40693;43.884;20.340;2024-03-06T06:01:18;307.60;2304.00
54796;DHT22;40693;43.884;20.340;2024-03-06T06:03:47;307.60;2304.00
54796;DHT22;40693;43.884;20.340;2024-03-06T06:06:17;307.60;2304.00
54796;DHT22;40693;43.884;20.340;2024-03-06T06:08:45;307.50;2304.00
54796;DHT22;40693;43.884;20.340;2024-03-06T06:11:11;307.50;2304.00
54796;DHT22;40693;43.884;20.340;2024-03-06T06:13:38;307.50;2304.00
54796;DHT22;40693;43.884;20.340;2024-03-06T06:16:05;307.50;2304.00
54796;DHT22;40693;43.884;20.340;2024-03-06T06:18:31;307.60;2304.00
54796;DHT22;40693;43.884;20.340;2024-03-06T06:20:58;307.70;2304.00
54796;DHT22;40693;43.884;20.340;2024-03-06T06:23:24;307.70;2304.00
54796;DHT22;40693;43.884;20.340;2024-03-06T06:25:50;307.70;2304.00
54796;DHT22;40693;43.884;20.340;2024-03-06T06:28:16;307.80;2304.00
54796;DHT22;40693;43.884;20.340;2024-03-06T06:30:41;307.80;2304.00
54796;DHT22;40693;43.884;20.340;2024-03-06T06:33:07;307.80;2304.00
54796;DHT22;40693;43.884;20.340;2024-03-06T06:35:34;307.80;2304.00
54796;DHT22;40693;43.884;20.340;2024-03-06T06:38:00;307.80;2304.00
54796;DHT22;40693;43.884;20.340;2024-03-06T06:40:26;307.80;2304.00
54796;DHT22;40693;43.884;20.340;2024-03-06T06:42:54;307.70;2304.00
54796;DHT22;40693;43.884;20.340;2024-03-06T06:45:20;307.60;2304.00
54796;DHT22;40693;43.884;20.340;2024-03-06T06:47:46;307.50;2304.00
54796;DHT22;40693;43.884;20.340;2024-03-06T06:50:12;307.40;2304.00
54796;DHT22;40693;43.884;20.340;2024-03-06T06:52:39;307.30;2304.00
54796;DHT22;40693;43.884;20.340;2024-03-06T06:55:05;307.30;2304.00
54796;DHT22;40693;43.884;20.340;2024-03-06T06:57:32;307.30;2304.00
54796;DHT22;40693;43.884;20.340;2024-03-06T07:00:01;307.30;2304.00
54796;DHT22;40693;43.884;20.340;2024-03-06T07:02:39;307.30;2304.00
54796;DHT22;40693;43.884;20.340;2024-03-06T07:05:07;307.40;2304.00
54796;DHT22;40693;43.884;20.340;2024-03-06T07:07:34;307.60;2304.00
54796;DHT22;40693;43.884;20.340;2024-03-06T07:10:00;307.60;2304.00
54796;DHT22;40693;43.884;20.340;2024-03-06T07:12:26;307.60;2304.00
54796;DHT22;40693;43.884;20.340;2024-03-06T07:14:52;307.70;2304.00
54796;DHT22;40693;43.884;20.340;2024-03-06T07:17:18;307.70;2304.00
54796;DHT22;40693;43.884;20.340;2024-03-06T07:19:44;307.80;2304.00
54796;DHT22;40693;43.884;20.340;2024-03-06T07:22:09;307.90;2304.00
54796;DHT22;40693;43.884;20.340;2024-03-06T07:24:35;308.00;2304.00
54796;DHT22;40693;43.884;20.340;2024-03-06T07:27:02;308.00;2304.00
54796;DHT22;40693;43.884;20.340;2024-03-06T07:29:28;308.10;2304.00
54796;DHT22;40693;43.884;20.340;2024-03-06T07:31:54;308.10;2304.00
54796;DHT22;40693;43.884;20.340;2024-03-06T07:34:20;332.80;2329.60
54796;DHT22;40693;43.884;20.340;2024-03-06T07:36:49;332.80;2329.60
54796;DHT22;40693;43.884;20.340;2024-03-06T07:39:20;332.90;2329.60
54796;DHT22;40693;43.884;20.340;2024-03-06T07:41:46;332.90;2329.60
54796;DHT22;40693;43.884;20.340;2024-03-06T07:44:12;332.90;2329.60
54796;DHT22;40693;43.884;20.340;2024-03-06T07:46:38;333.00;2329.60
54796;DHT22;40693;43.884;20.340;2024-03-06T07:49:04;333.10;2329.60
54796;DHT22;40693;43.884;20.340;2024-03-06T07:51:33;333.20;2329.60
54796;DHT22;40693;43.884;20.340;2024-03-06T07:54:00;333.10;2329.60
54796;DHT22;40693;43.884;20.340;2024-03-06T07:56:26;333.20;2329.60
54796;DHT22;40693;43.884;20.340;2024-03-06T07:58:52;333.20;2329.60
54796;DHT22;40693;43.884;20.340;2024-03-06T08:01:21;333.30;2329.60
54796;DHT22;40693;43.884;20.340;2024-03-06T08:03:48;333.30;2329.60
54796;DHT22;40693;43.884;20.340;2024-03-06T08:06:13;333.30;2329.60
54796;DHT22;40693;43.884;20.340;2024-03-06T08:08:43;333.40;2329.60
54796;DHT22;40693;43.884;20.340;2024-03-06T08:11:10;333.40;2329.60
54796;DHT22;40693;43.884;20.340;2024-03-06T08:13:37;333.40;2329.60
54796;DHT22;40693;43.884;20.340;2024-03-06T08:16:04;333.40;2329.60
54796;DHT22;40693;43.884;20.340;2024-03-06T08:18:30;333.50;2329.60
54796;DHT22;40693;43.884;20.340;2024-03-06T08:20:56;333.50;2329.60
54796;DHT22;40693;43.884;20.340;2024-03-06T08:23:22;333.50;2329.60
54796;DHT22;40693;43.884;20.340;2024-03-06T08:25:49;333.50;2329.60
54796;DHT22;40693;43.884;20.340;2024-03-06T08:28:15;333.50;2329.60
54796;DHT22;40693;43.884;20.340;2024-03-06T08:30:41;333.60;2329.60
54796;DHT22;40693;43.884;20.340;2024-03-06T08:33:07;358.50;2329.60
54796;DHT22;40693;43.884;20.340;2024-03-06T08:35:33;333.70;2329.60
54796;DHT22;40693;43.884;20.340;2024-03-06T08:38:00;333.70;2329.60
54796;DHT22;40693;43.884;20.340;2024-03-06T08:40:26;358.40;2329.60
54796;DHT22;40693;43.884;20.340;2024-03-06T08:42:53;333.70;2329.60
54796;DHT22;40693;43.884;20.340;2024-03-06T08:45:20;333.70;2329.60
54796;DHT22;40693;43.884;20.340;2024-03-06T08:47:46;333.70;2329.60
54796;DHT22;40693;43.884;20.340;2024-03-06T08:50:16;358.40;2329.60
54796;DHT22;40693;43.884;20.340;2024-03-06T08:52:42;358.40;2329.60
54796;DHT22;40693;43.884;20.340;2024-03-06T08:55:08;358.50;2329.60
54796;DHT22;40693;43.884;20.340;2024-03-06T08:57:37;358.50;2329.60
54796;DHT22;40693;43.884;20.340;2024-03-06T09:00:07;358.70;2329.60
54796;DHT22;40693;43.884;20.340;2024-03-06T09:02:39;358.80;2329.60
54796;DHT22;40693;43.884;20.340;2024-03-06T09:05:06;359.00;2329.60
54796;DHT22;40693;43.884;20.340;2024-03-06T09:07:32;359.20;2329.60
54796;DHT22;40693;43.884;20.340;2024-03-06T09:10:06;384.00;2329.60
54796;DHT22;40693;43.884;20.340;2024-03-06T09:12:32;384.20;2329.60
54796;DHT22;40693;43.884;20.340;2024-03-06T09:14:58;384.20;2329.60
54796;DHT22;40693;43.884;20.340;2024-03-06T09:17:26;384.20;2329.60
54796;DHT22;40693;43.884;20.340;2024-03-06T09:19:52;384.30;2329.60
54796;DHT22;40693;43.884;20.340;2024-03-06T09:22:17;384.40;2329.60
54796;DHT22;40693;43.884;20.340;2024-03-06T09:24:43;384.60;2329.60
54796;DHT22;40693;43.884;20.340;2024-03-06T09:27:09;384.70;2329.60
54796;DHT22;40693;43.884;20.340;2024-03-06T09:29:35;384.90;2329.60
54796;DHT22;40693;43.884;20.340;2024-03-06T09:32:01;409.70;2355.20
54796;DHT22;40693;43.884;20.340;2024-03-06T09:34:27;410.00;2355.20
54796;DHT22;40693;43.884;20.340;2024-03-06T09:36:53;410.30;2355.20
54796;DHT22;40693;43.884;20.340;2024-03-06T09:39:19;435.20;2355.20
54796;DHT22;40693;43.884;20.340;2024-03-06T09:44:18;435.80;2355.20
54796;DHT22;40693;43.884;20.340;2024-03-06T09:49:16;436.10;2355.20
54796;DHT22;40693;43.884;20.340;2024-03-06T09:51:46;436.00;2355.20
54796;DHT22;40693;43.884;20.340;2024-03-06T09:54:13;436.10;2355.20
54796;DHT22;40693;43.884;20.340;2024-03-06T09:56:43;460.90;2380.80
54796;DHT22;40693;43.884;20.340;2024-03-06T09:59:09;460.90;2380.80
54796;DHT22;40693;43.884;20.340;2024-03-06T10:01:58;461.00;2380.80
54796;DHT22;40693;43.884;20.340;2024-03-06T10:04:24;461.30;2380.80
54796;DHT22;40693;43.884;20.340;2024-03-06T10:06:54;461.40;2380.80
54796;DHT22;40693;43.884;20.340;2024-03-06T10:09:21;461.60;2380.80
54796;DHT22;40693;43.884;20.340;2024-03-06T10:11:47;461.70;2380.80
54796;DHT22;40693;43.884;20.340;2024-03-06T10:14:13;486.60;2304.00
54796;DHT22;40693;43.884;20.340;2024-03-06T10:16:58;486.70;2252.80
54796;DHT22;40693;43.884;20.340;2024-03-06T10:19:26;486.90;2278.40
54796;DHT22;40693;43.884;20.340;2024-03-06T10:21:56;487.30;2201.60
54796;DHT22;40693;43.884;20.340;2024-03-06T10:24:29;487.30;2201.60
54796;DHT22;40693;43.884;20.340;2024-03-06T10:26:56;487.30;2124.80
54796;DHT22;40693;43.884;20.340;2024-03-06T10:31:55;512.20;2048.00
54796;DHT22;40693;43.884;20.340;2024-03-06T10:34:21;512.10;2048.00
54796;DHT22;40693;43.884;20.340;2024-03-06T10:39:21;512.10;1945.60
54796;DHT22;40693;43.884;20.340;2024-03-06T10:41:54;512.20;1920.00
54796;DHT22;40693;43.884;20.340;2024-03-06T10:52:04;512.40;1894.40
54796;DHT22;40693;43.884;20.340;2024-03-06T10:54:32;512.40;1920.00
54796;DHT22;40693;43.884;20.340;2024-03-06T10:57:01;512.60;1920.00
54796;DHT22;40693;43.884;20.340;2024-03-06T10:59:28;512.80;1920.00
54796;DHT22;40693;43.884;20.340;2024-03-06T11:01:58;537.80;1843.20
54796;DHT22;40693;43.884;20.340;2024-03-06T11:04:29;537.70;1817.60
54796;DHT22;40693;43.884;20.340;2024-03-06T11:06:59;537.80;1843.20
54796;DHT22;40693;43.884;20.340;2024-03-06T11:09:35;512.90;1817.60
54796;DHT22;40693;43.884;20.340;2024-03-06T11:12:04;512.70;1868.80
54796;DHT22;40693;43.884;20.340;2024-03-06T11:14:36;512.60;1843.20
54796;DHT22;40693;43.884;20.340;2024-03-06T11:28:21;512.70;1766.40
54796;DHT22;40693;43.884;20.340;2024-03-06T11:30:54;512.80;1766.40
54796;DHT22;40693;43.884;20.340;2024-03-06T11:33:20;512.90;1715.20
54796;DHT22;40693;43.884;20.340;2024-03-06T11:36:23;537.60;1792.00
54796;DHT22;40693;43.884;20.340;2024-03-06T11:39:05;537.90;1740.80
54796;DHT22;40693;43.884;20.340;2024-03-06T11:41:46;538.20;1664.00
54796;DHT22;40693;43.884;20.340;2024-03-06T11:44:20;538.00;1536.00
54796;DHT22;40693;43.884;20.340;2024-03-06T11:49:26;537.70;1638.40
54796;DHT22;40693;43.884;20.340;2024-03-06T11:54:26;537.70;1664.00
54796;DHT22;40693;43.884;20.340;2024-03-06T11:56:54;512.90;1689.60
54796;DHT22;40693;43.884;20.340;2024-03-06T11:59:25;512.30;1689.60
54796;DHT22;40693;43.884;20.340;2024-03-06T12:01:52;487.20;1715.20
54796;DHT22;40693;43.884;20.340;2024-03-06T12:04:19;486.80;1817.60
54796;DHT22;40693;43.884;20.340;2024-03-06T12:06:48;461.60;1868.80
54796;DHT22;40693;43.884;20.340;2024-03-06T12:09:15;461.00;1894.40
54796;DHT22;40693;43.884;20.340;2024-03-06T12:11:41;436.00;1894.40
54796;DHT22;40693;43.884;20.340;2024-03-06T12:14:18;435.80;1945.60
54796;DHT22;40693;43.884;20.340;2024-03-06T12:17:17;435.50;1971.20
54796;DHT22;40693;43.884;20.340;2024-03-06T12:19:36;435.30;2048.00
54796;DHT22;40693;43.884;20.340;2024-03-06T12:22:03;410.50;2099.20
54796;DHT22;40693;43.884;20.340;2024-03-06T12:24:32;410.40;2150.40
54796;DHT22;40693;43.884;20.340;2024-03-06T12:27:03;410.40;2201.60
54796;DHT22;40693;43.884;20.340;2024-03-06T12:29:33;410.30;2227.20
54796;DHT22;40693;43.884;20.340;2024-03-06T12:32:00;410.40;2252.80
54796;DHT22;40693;43.884;20.340;2024-03-06T12:34:26;410.40;2304.00
54796;DHT22;40693;43.884;20.340;2024-03-06T12:36:52;410.40;2304.00
54796;DHT22;40693;43.884;20.340;2024-03-06T12:39:19;410.50;2355.20
54796;DHT22;40693;43.884;20.340;2024-03-06T12:41:52;435.30;2355.20
54796;DHT22;40693;43.884;20.340;2024-03-06T12:44:19;435.40;2355.20
54796;DHT22;40693;43.884;20.340;2024-03-06T12:46:46;410.30;2355.20
54796;DHT22;40693;43.884;20.340;2024-03-06T12:49:11;435.30;2355.20
54796;DHT22;40693;43.884;20.340;2024-03-06T12:51:37;435.40;2355.20
54796;DHT22;40693;43.884;20.340;2024-03-06T12:54:03;435.60;2329.60
54796;DHT22;40693;43.884;20.340;2024-03-06T12:56:29;435.60;2304.00
54796;DHT22;40693;43.884;20.340;2024-03-06T12:58:55;435.60;2278.40
54796;DHT22;40693;43.884;20.340;2024-03-06T13:01:21;435.80;2304.00
54796;DHT22;40693;43.884;20.340;2024-03-06T13:03:47;435.90;2252.80
54796;DHT22;40693;43.884;20.340;2024-03-06T13:06:12;435.90;2227.20
54796;DHT22;40693;43.884;20.340;2024-03-06T13:08:38;436.10;2201.60
54796;DHT22;40693;43.884;20.340;2024-03-06T13:11:04;460.90;2227.20
54796;DHT22;40693;43.884;20.340;2024-03-06T13:13:30;460.80;2201.60
54796;DHT22;40693;43.884;20.340;2024-03-06T13:15:58;436.10;2150.40
54796;DHT22;40693;43.884;20.340;2024-03-06T13:18:24;436.10;2150.40
54796;DHT22;40693;43.884;20.340;2024-03-06T13:20:51;436.10;2150.40
54796;DHT22;40693;43.884;20.340;2024-03-06T13:23:17;436.00;2150.40
54796;DHT22;40693;43.884;20.340;2024-03-06T13:25:43;435.90;2124.80
54796;DHT22;40693;43.884;20.340;2024-03-06T13:28:11;435.90;2099.20
54796;DHT22;40693;43.884;20.340;2024-03-06T13:30:37;435.90;2099.20
54796;DHT22;40693;43.884;20.340;2024-03-06T13:33:04;436.10;2099.20
54796;DHT22;40693;43.884;20.340;2024-03-06T13:35:31;461.30;2099.20
54796;DHT22;40693;43.884;20.340;2024-03-06T13:37:56;460.90;2099.20
54796;DHT22;40693;43.884;20.340;2024-03-06T13:40:23;460.90;2099.20
54796;DHT22;40693;43.884;20.340;2024-03-06T13:42:49;460.80;2048.00
54796;DHT22;40693;43.884;20.340;2024-03-06T13:45:14;460.80;2073.60
54796;DHT22;40693;43.884;20.340;2024-03-06T13:47:42;461.20;2022.40
54796;DHT22;40693;43.884;20.340;2024-03-06T13:50:09;461.60;1996.80
54796;DHT22;40693;43.884;20.340;2024-03-06T13:52:35;461.60;1971.20
54796;DHT22;40693;43.884;20.340;2024-03-06T13:55:01;486.50;1920.00
54796;DHT22;40693;43.884;20.340;2024-03-06T13:57:32;461.60;1920.00
54796;DHT22;40693;43.884;20.340;2024-03-06T14:00:09;461.60;1920.00
54796;DHT22;40693;43.884;20.340;2024-03-06T14:02:39;461.60;1945.60
54796;DHT22;40693;43.884;20.340;2024-03-06T14:05:06;461.40;1945.60
54796;DHT22;40693;43.884;20.340;2024-03-06T14:07:33;461.30;1971.20
54796;DHT22;40693;43.884;20.340;2024-03-06T14:09:59;461.00;1971.20
54796;DHT22;40693;43.884;20.340;2024-03-06T14:12:25;461.00;1996.80
54796;DHT22;40693;43.884;20.340;2024-03-06T14:14:50;461.00;1996.80
54796;DHT22;40693;43.884;20.340;2024-03-06T14:17:16;461.00;2022.40
54796;DHT22;40693;43.884;20.340;2024-03-06T14:19:42;461.00;2022.40
54796;DHT22;40693;43.884;20.340;2024-03-06T14:22:08;461.00;2048.00
54796;DHT22;40693;43.884;20.340;2024-03-06T14:24:34;460.90;2022.40
54796;DHT22;40693;43.884;20.340;2024-03-06T14:27:01;460.90;2022.40
54796;DHT22;40693;43.884;20.340;2024-03-06T14:29:27;461.10;2048.00
54796;DHT22;40693;43.884;20.340;2024-03-06T14:31:53;436.10;2048.00
54796;DHT22;40693;43.884;20.340;2024-03-06T14:34:20;435.90;2073.60
54796;DHT22;40693;43.884;20.340;2024-03-06T14:36:46;435.90;2073.60
54796;DHT22;40693;43.884;20.340;2024-03-06T14:39:11;435.70;2099.20
54796;DHT22;40693;43.884;20.340;2024-03-06T14:41:39;435.50;2150.40
54796;DHT22;40693;43.884;20.340;2024-03-06T14:44:04;435.40;2176.00
54796;DHT22;40693;43.884;20.340;2024-03-06T14:46:31;435.20;2176.00
54796;DHT22;40693;43.884;20.340;2024-03-06T14:48:56;410.40;2176.00
54796;DHT22;40693;43.884;20.340;2024-03-06T14:51:22;410.30;2176.00
54796;DHT22;40693;43.884;20.340;2024-03-06T14:53:48;410.20;2150.40
54796;DHT22;40693;43.884;20.340;2024-03-06T14:56:14;410.20;2124.80
54796;DHT22;40693;43.884;20.340;2024-03-06T14:58:39;410.00;2150.40
54796;DHT22;40693;43.884;20.340;2024-03-06T15:01:06;409.80;2176.00
54796;DHT22;40693;43.884;20.340;2024-03-06T15:03:31;409.70;2201.60
54796;DHT22;40693;43.884;20.340;2024-03-06T15:05:57;409.70;2201.60
54796;DHT22;40693;43.884;20.340;2024-03-06T15:08:23;409.70;2201.60
54796;DHT22;40693;43.884;20.340;2024-03-06T15:10:49;409.80;2227.20